Impacts TAF Board
For situational awareness. Not to be used for flight planning purposes.
IDs:

KCOE - Coeur DAlene Arpt, ID, US

Issued at 1735 UTC 06 Dec 2019
Updated at 2106 UTC 06 Dec 2019
Potential Impact None Slight Moderate High
Time2056Z 06/22Z 06/23Z 07/00Z 07/01Z 07/02Z 07/03Z 07/04Z 07/05Z 07/06Z 07/07Z 07/08Z 07/09Z 07/10Z>>
Type OBS PRVL PRVL PRVL PRVL PRVL PRVL PRVL PRVL PRVL PRVL PRVL PRVL PRVL
VIS 10 >6 >6 >6 >6 >6 >6 >6 4 4 4 4 4 2
CIG 60 60 60 60 60 60 60 60 45 45 45 45 45 10
Cover BKN OVC OVC OVC OVC OVC OVC OVC OVC OVC OVC OVC OVC OVC
FltCat VFR VFR VFR VFR VFR VFR VFR VFR MVFR MVFR MVFR MVFR MVFR IFR
WX -- -- -- -- -- -- -- -- BR BR BR BR BR -RA BR
WDir VRB 40 40 40 40 40 40 40 50 50 50 50 50 VRB
WSpd 0 5 5 5 5 5 5 5 5 5 5 5 5 5
WGst -- -- -- -- -- -- -- -- -- -- -- -- -- --
Raw TAF
KCOE 061735Z 0618/0718 VRB04KT P6SM SCT060 OVC120
  FM062200 04005KT P6SM OVC060
  FM070500 05005KT 4SM BR OVC045
  FM071000 VRB05KT 2SM -RA BR OVC010


Raw METAR
KCOE 062056Z AUTO 00000KT 10SM BKN060 05/03 A3003 RMK AO2 SLP203 T00500033 58019
KCOE 061956Z AUTO 00000KT 10SM BKN048 OVC060 05/03 A3006 RMK AO2 SLP212 T00500028
KCOE 061856Z AUTO 06003KT 10SM FEW055 04/04 A3008 RMK AO2 SLP221 T00390039

METAR Board
Radar Display
Forecast Discussion
For situational awareness. Not to be used for flight planning purposes.